sensor_id;sensor_type;location;lat;lon;timestamp;P1;durP1;ratioP1;P2;durP2;ratioP2
17763;SDS011;22245;52.832;13.816;2024-03-07T00:02:27;101.83;;;36.90;;
17763;SDS011;22245;52.832;13.816;2024-03-07T00:05:49;118.90;;;39.10;;
17763;SDS011;22245;52.832;13.816;2024-03-07T00:09:12;118.10;;;40.67;;
17763;SDS011;22245;52.832;13.816;2024-03-07T00:12:36;121.37;;;41.30;;
17763;SDS011;22245;52.832;13.816;2024-03-07T00:16:01;126.70;;;41.23;;
17763;SDS011;22245;52.832;13.816;2024-03-07T00:19:23;116.37;;;40.20;;
17763;SDS011;22245;52.832;13.816;2024-03-07T00:22:47;108.73;;;38.00;;
17763;SDS011;22245;52.832;13.816;2024-03-07T00:26:10;104.47;;;37.20;;
17763;SDS011;22245;52.832;13.816;2024-03-07T00:29:32;116.77;;;39.77;;
17763;SDS011;22245;52.832;13.816;2024-03-07T00:32:55;106.00;;;39.17;;
17763;SDS011;22245;52.832;13.816;2024-03-07T00:36:18;102.40;;;37.57;;
17763;SDS011;22245;52.832;13.816;2024-03-07T00:39:41;110.67;;;38.47;;
17763;SDS011;22245;52.832;13.816;2024-03-07T00:43:04;100.37;;;36.07;;
17763;SDS011;22245;52.832;13.816;2024-03-07T00:46:26;92.23;;;33.87;;
17763;SDS011;22245;52.832;13.816;2024-03-07T00:49:47;108.53;;;36.80;;
17763;SDS011;22245;52.832;13.816;2024-03-07T00:53:09;104.83;;;37.33;;
17763;SDS011;22245;52.832;13.816;2024-03-07T00:56:31;93.40;;;36.77;;
17763;SDS011;22245;52.832;13.816;2024-03-07T00:59:55;101.63;;;36.60;;
17763;SDS011;22245;52.832;13.816;2024-03-07T01:03:17;99.10;;;37.23;;
17763;SDS011;22245;52.832;13.816;2024-03-07T01:06:38;95.57;;;36.67;;
17763;SDS011;22245;52.832;13.816;2024-03-07T01:10:00;88.67;;;35.47;;
17763;SDS011;22245;52.832;13.816;2024-03-07T01:13:23;100.57;;;37.07;;
17763;SDS011;22245;52.832;13.816;2024-03-07T01:16:46;92.13;;;36.20;;
17763;SDS011;22245;52.832;13.816;2024-03-07T01:20:08;92.07;;;36.07;;
17763;SDS011;22245;52.832;13.816;2024-03-07T01:23:32;96.13;;;37.83;;
17763;SDS011;22245;52.832;13.816;2024-03-07T01:26:53;93.80;;;35.37;;
17763;SDS011;22245;52.832;13.816;2024-03-07T01:30:15;101.40;;;36.13;;
17763;SDS011;22245;52.832;13.816;2024-03-07T01:33:38;97.43;;;35.73;;
17763;SDS011;22245;52.832;13.816;2024-03-07T01:37:00;90.47;;;34.30;;
17763;SDS011;22245;52.832;13.816;2024-03-07T01:40:24;88.20;;;34.33;;
17763;SDS011;22245;52.832;13.816;2024-03-07T01:43:45;83.50;;;33.83;;
17763;SDS011;22245;52.832;13.816;2024-03-07T01:47:07;89.60;;;35.80;;
17763;SDS011;22245;52.832;13.816;2024-03-07T01:50:30;88.33;;;34.63;;
17763;SDS011;22245;52.832;13.816;2024-03-07T01:53:52;93.77;;;36.40;;
17763;SDS011;22245;52.832;13.816;2024-03-07T01:57:15;99.67;;;36.20;;
17763;SDS011;22245;52.832;13.816;2024-03-07T02:00:39;90.77;;;35.87;;
17763;SDS011;22245;52.832;13.816;2024-03-07T02:04:01;89.67;;;34.73;;
17763;SDS011;22245;52.832;13.816;2024-03-07T02:07:24;93.93;;;36.10;;
17763;SDS011;22245;52.832;13.816;2024-03-07T02:10:46;96.53;;;36.23;;
17763;SDS011;22245;52.832;13.816;2024-03-07T02:14:09;93.33;;;34.37;;
17763;SDS011;22245;52.832;13.816;2024-03-07T02:17:30;82.33;;;34.77;;
17763;SDS011;22245;52.832;13.816;2024-03-07T02:20:53;77.90;;;33.70;;
17763;SDS011;22245;52.832;13.816;2024-03-07T02:24:15;86.87;;;35.30;;
17763;SDS011;22245;52.832;13.816;2024-03-07T02:27:37;83.67;;;35.50;;
17763;SDS011;22245;52.832;13.816;2024-03-07T02:30:58;83.20;;;35.23;;
17763;SDS011;22245;52.832;13.816;2024-03-07T02:34:20;89.40;;;34.77;;
17763;SDS011;22245;52.832;13.816;2024-03-07T02:37:42;83.90;;;35.27;;
17763;SDS011;22245;52.832;13.816;2024-03-07T02:41:05;92.43;;;35.87;;
17763;SDS011;22245;52.832;13.816;2024-03-07T02:44:27;95.07;;;35.90;;
17763;SDS011;22245;52.832;13.816;2024-03-07T02:47:48;89.43;;;36.33;;
17763;SDS011;22245;52.832;13.816;2024-03-07T02:51:10;91.80;;;35.60;;
17763;SDS011;22245;52.832;13.816;2024-03-07T02:54:34;85.07;;;35.13;;
17763;SDS011;22245;52.832;13.816;2024-03-07T02:57:55;85.87;;;35.07;;
17763;SDS011;22245;52.832;13.816;2024-03-07T03:01:19;81.57;;;32.97;;
17763;SDS011;22245;52.832;13.816;2024-03-07T03:04:40;81.90;;;33.13;;
17763;SDS011;22245;52.832;13.816;2024-03-07T03:08:02;95.97;;;34.03;;
17763;SDS011;22245;52.832;13.816;2024-03-07T03:11:28;81.67;;;34.70;;
17763;SDS011;22245;52.832;13.816;2024-03-07T03:14:50;82.17;;;31.87;;
17763;SDS011;22245;52.832;13.816;2024-03-07T03:18:13;79.27;;;31.83;;
17763;SDS011;22245;52.832;13.816;2024-03-07T03:21:36;80.73;;;33.77;;
17763;SDS011;22245;52.832;13.816;2024-03-07T03:24:57;85.93;;;32.97;;
17763;SDS011;22245;52.832;13.816;2024-03-07T03:28:20;82.70;;;33.80;;
17763;SDS011;22245;52.832;13.816;2024-03-07T03:31:42;80.53;;;32.90;;
17763;SDS011;22245;52.832;13.816;2024-03-07T03:35:05;77.07;;;32.17;;
17763;SDS011;22245;52.832;13.816;2024-03-07T03:38:27;74.83;;;30.10;;
17763;SDS011;22245;52.832;13.816;2024-03-07T03:41:49;77.33;;;32.10;;
17763;SDS011;22245;52.832;13.816;2024-03-07T03:45:13;74.87;;;31.37;;
17763;SDS011;22245;52.832;13.816;2024-03-07T03:48:35;77.17;;;30.97;;
17763;SDS011;22245;52.832;13.816;2024-03-07T03:51:57;79.43;;;32.37;;
17763;SDS011;22245;52.832;13.816;2024-03-07T03:55:19;80.60;;;32.30;;
17763;SDS011;22245;52.832;13.816;2024-03-07T03:58:41;78.03;;;31.80;;
17763;SDS011;22245;52.832;13.816;2024-03-07T04:02:04;73.50;;;30.83;;
17763;SDS011;22245;52.832;13.816;2024-03-07T04:05:26;78.37;;;31.77;;
17763;SDS011;22245;52.832;13.816;2024-03-07T04:08:48;79.57;;;31.37;;
17763;SDS011;22245;52.832;13.816;2024-03-07T04:12:09;87.63;;;33.73;;
17763;SDS011;22245;52.832;13.816;2024-03-07T04:15:32;69.00;;;29.93;;
17763;SDS011;22245;52.832;13.816;2024-03-07T04:18:57;77.73;;;31.80;;
17763;SDS011;22245;52.832;13.816;2024-03-07T04:22:19;79.27;;;31.57;;
17763;SDS011;22245;52.832;13.816;2024-03-07T04:25:40;77.20;;;31.00;;
17763;SDS011;22245;52.832;13.816;2024-03-07T04:29:02;75.70;;;31.03;;
17763;SDS011;22245;52.832;13.816;2024-03-07T04:32:23;85.37;;;32.60;;
17763;SDS011;22245;52.832;13.816;2024-03-07T04:35:47;76.67;;;29.67;;
17763;SDS011;22245;52.832;13.816;2024-03-07T04:39:08;74.00;;;31.27;;
17763;SDS011;22245;52.832;13.816;2024-03-07T04:42:42;68.90;;;28.53;;
17763;SDS011;22245;52.832;13.816;2024-03-07T04:46:04;73.37;;;29.63;;
17763;SDS011;22245;52.832;13.816;2024-03-07T04:49:28;78.77;;;31.20;;
17763;SDS011;22245;52.832;13.816;2024-03-07T04:52:52;76.50;;;29.90;;
17763;SDS011;22245;52.832;13.816;2024-03-07T04:56:13;76.20;;;30.27;;
17763;SDS011;22245;52.832;13.816;2024-03-07T04:59:35;80.03;;;31.00;;
17763;SDS011;22245;52.832;13.816;2024-03-07T05:02:56;80.77;;;30.63;;
17763;SDS011;22245;52.832;13.816;2024-03-07T05:06:18;68.73;;;30.13;;
17763;SDS011;22245;52.832;13.816;2024-03-07T05:09:42;68.63;;;28.17;;
17763;SDS011;22245;52.832;13.816;2024-03-07T05:13:03;72.33;;;29.47;;
17763;SDS011;22245;52.832;13.816;2024-03-07T05:16:26;70.93;;;29.67;;
17763;SDS011;22245;52.832;13.816;2024-03-07T05:19:48;74.73;;;29.70;;
17763;SDS011;22245;52.832;13.816;2024-03-07T05:23:09;69.90;;;27.00;;
17763;SDS011;22245;52.832;13.816;2024-03-07T05:26:35;74.90;;;30.43;;
17763;SDS011;22245;52.832;13.816;2024-03-07T05:30:00;73.10;;;29.70;;
17763;SDS011;22245;52.832;13.816;2024-03-07T05:33:22;69.47;;;28.10;;
17763;SDS011;22245;52.832;13.816;2024-03-07T05:36:44;75.93;;;29.63;;
17763;SDS011;22245;52.832;13.816;2024-03-07T05:40:07;78.30;;;30.73;;
17763;SDS011;22245;52.832;13.816;2024-03-07T05:43:31;68.20;;;29.47;;
17763;SDS011;22245;52.832;13.816;2024-03-07T05:46:52;72.87;;;29.27;;
17763;SDS011;22245;52.832;13.816;2024-03-07T05:50:14;78.90;;;30.27;;
17763;SDS011;22245;52.832;13.816;2024-03-07T05:53:36;73.60;;;29.23;;
17763;SDS011;22245;52.832;13.816;2024-03-07T05:56:58;70.83;;;27.60;;
17763;SDS011;22245;52.832;13.816;2024-03-07T06:00:22;67.67;;;28.63;;
17763;SDS011;22245;52.832;13.816;2024-03-07T06:03:48;72.40;;;27.77;;
17763;SDS011;22245;52.832;13.816;2024-03-07T06:07:11;75.57;;;29.83;;
17763;SDS011;22245;52.832;13.816;2024-03-07T06:10:32;71.67;;;30.53;;
17763;SDS011;22245;52.832;13.816;2024-03-07T06:13:54;73.77;;;27.97;;
17763;SDS011;22245;52.832;13.816;2024-03-07T06:17:17;66.13;;;28.53;;
17763;SDS011;22245;52.832;13.816;2024-03-07T06:20:42;66.23;;;27.60;;
17763;SDS011;22245;52.832;13.816;2024-03-07T06:24:05;66.07;;;27.00;;
17763;SDS011;22245;52.832;13.816;2024-03-07T06:27:28;73.87;;;28.30;;
17763;SDS011;22245;52.832;13.816;2024-03-07T06:30:57;66.13;;;26.97;;
17763;SDS011;22245;52.832;13.816;2024-03-07T06:34:20;64.23;;;27.47;;
17763;SDS011;22245;52.832;13.816;2024-03-07T06:37:42;73.00;;;27.93;;
17763;SDS011;22245;52.832;13.816;2024-03-07T06:41:03;82.13;;;32.33;;
17763;SDS011;22245;52.832;13.816;2024-03-07T06:44:25;75.30;;;28.77;;
17763;SDS011;22245;52.832;13.816;2024-03-07T06:47:47;60.00;;;25.57;;
17763;SDS011;22245;52.832;13.816;2024-03-07T06:51:11;67.03;;;25.33;;
17763;SDS011;22245;52.832;13.816;2024-03-07T06:54:33;58.40;;;24.93;;
17763;SDS011;22245;52.832;13.816;2024-03-07T06:57:54;59.83;;;24.80;;
17763;SDS011;22245;52.832;13.816;2024-03-07T07:01:16;63.33;;;25.10;;
17763;SDS011;22245;52.832;13.816;2024-03-07T07:04:40;56.27;;;24.80;;
17763;SDS011;22245;52.832;13.816;2024-03-07T07:08:04;64.67;;;26.63;;
17763;SDS011;22245;52.832;13.816;2024-03-07T07:11:27;61.00;;;24.23;;
17763;SDS011;22245;52.832;13.816;2024-03-07T07:14:54;55.93;;;22.87;;
17763;SDS011;22245;52.832;13.816;2024-03-07T07:18:15;59.70;;;24.33;;
17763;SDS011;22245;52.832;13.816;2024-03-07T07:21:37;54.23;;;22.93;;
17763;SDS011;22245;52.832;13.816;2024-03-07T07:25:03;46.70;;;21.20;;
17763;SDS011;22245;52.832;13.816;2024-03-07T07:28:25;43.40;;;21.60;;
17763;SDS011;22245;52.832;13.816;2024-03-07T07:31:46;47.63;;;20.57;;
17763;SDS011;22245;52.832;13.816;2024-03-07T07:35:08;40.73;;;18.97;;
17763;SDS011;22245;52.832;13.816;2024-03-07T07:38:31;39.77;;;18.27;;
17763;SDS011;22245;52.832;13.816;2024-03-07T07:41:54;38.20;;;17.33;;
17763;SDS011;22245;52.832;13.816;2024-03-07T07:45:17;35.73;;;17.33;;
17763;SDS011;22245;52.832;13.816;2024-03-07T07:48:39;32.43;;;17.30;;
17763;SDS011;22245;52.832;13.816;2024-03-07T07:52:02;35.20;;;16.97;;
17763;SDS011;22245;52.832;13.816;2024-03-07T07:55:24;39.77;;;17.93;;
17763;SDS011;22245;52.832;13.816;2024-03-07T07:58:47;36.63;;;17.17;;
17763;SDS011;22245;52.832;13.816;2024-03-07T08:02:09;37.00;;;17.57;;
17763;SDS011;22245;52.832;13.816;2024-03-07T08:05:31;34.67;;;16.30;;
17763;SDS011;22245;52.832;13.816;2024-03-07T08:08:53;34.27;;;16.07;;
17763;SDS011;22245;52.832;13.816;2024-03-07T08:12:15;35.33;;;16.57;;
17763;SDS011;22245;52.832;13.816;2024-03-07T08:15:38;28.27;;;14.87;;
17763;SDS011;22245;52.832;13.816;2024-03-07T08:18:59;32.00;;;15.53;;
17763;SDS011;22245;52.832;13.816;2024-03-07T08:22:23;28.80;;;16.03;;
17763;SDS011;22245;52.832;13.816;2024-03-07T08:25:44;31.97;;;16.57;;
17763;SDS011;22245;52.832;13.816;2024-03-07T08:29:06;29.73;;;16.07;;
17763;SDS011;22245;52.832;13.816;2024-03-07T08:32:28;33.37;;;15.90;;
17763;SDS011;22245;52.832;13.816;2024-03-07T08:35:50;34.00;;;16.77;;
17763;SDS011;22245;52.832;13.816;2024-03-07T08:39:13;33.13;;;16.57;;
17763;SDS011;22245;52.832;13.816;2024-03-07T08:42:34;29.73;;;17.43;;
17763;SDS011;22245;52.832;13.816;2024-03-07T08:45:57;33.37;;;18.60;;
17763;SDS011;22245;52.832;13.816;2024-03-07T08:49:20;32.07;;;16.47;;
17763;SDS011;22245;52.832;13.816;2024-03-07T08:52:42;27.37;;;15.27;;
17763;SDS011;22245;52.832;13.816;2024-03-07T08:56:04;32.40;;;17.10;;
17763;SDS011;22245;52.832;13.816;2024-03-07T08:59:26;28.33;;;15.70;;
17763;SDS011;22245;52.832;13.816;2024-03-07T09:02:48;30.17;;;15.77;;
17763;SDS011;22245;52.832;13.816;2024-03-07T09:06:14;27.77;;;15.70;;
17763;SDS011;22245;52.832;13.816;2024-03-07T09:09:36;30.57;;;16.17;;
17763;SDS011;22245;52.832;13.816;2024-03-07T09:12:57;31.10;;;15.47;;
17763;SDS011;22245;52.832;13.816;2024-03-07T09:16:19;27.47;;;15.43;;
17763;SDS011;22245;52.832;13.816;2024-03-07T09:19:42;27.37;;;15.10;;
17763;SDS011;22245;52.832;13.816;2024-03-07T09:23:05;28.20;;;15.97;;
17763;SDS011;22245;52.832;13.816;2024-03-07T09:26:27;33.53;;;16.17;;
17763;SDS011;22245;52.832;13.816;2024-03-07T09:29:49;28.67;;;16.03;;
17763;SDS011;22245;52.832;13.816;2024-03-07T09:33:11;27.37;;;15.63;;
17763;SDS011;22245;52.832;13.816;2024-03-07T09:36:36;29.07;;;15.17;;
17763;SDS011;22245;52.832;13.816;2024-03-07T09:40:00;29.53;;;14.93;;
17763;SDS011;22245;52.832;13.816;2024-03-07T09:43:23;27.37;;;14.30;;
17763;SDS011;22245;52.832;13.816;2024-03-07T09:46:46;28.90;;;15.20;;
17763;SDS011;22245;52.832;13.816;2024-03-07T09:50:09;26.00;;;14.63;;
17763;SDS011;22245;52.832;13.816;2024-03-07T09:53:31;29.00;;;15.40;;
17763;SDS011;22245;52.832;13.816;2024-03-07T09:56:54;27.57;;;14.87;;
17763;SDS011;22245;52.832;13.816;2024-03-07T10:00:23;25.67;;;13.83;;
17763;SDS011;22245;52.832;13.816;2024-03-07T10:03:48;25.30;;;14.83;;
17763;SDS011;22245;52.832;13.816;2024-03-07T10:07:13;24.97;;;14.20;;
17763;SDS011;22245;52.832;13.816;2024-03-07T10:10:36;27.77;;;14.10;;
17763;SDS011;22245;52.832;13.816;2024-03-07T10:13:59;25.77;;;14.03;;
17763;SDS011;22245;52.832;13.816;2024-03-07T10:17:23;27.87;;;14.10;;
17763;SDS011;22245;52.832;13.816;2024-03-07T10:20:46;28.20;;;14.20;;
17763;SDS011;22245;52.832;13.816;2024-03-07T10:24:09;32.30;;;15.37;;
17763;SDS011;22245;52.832;13.816;2024-03-07T10:27:31;29.37;;;14.13;;
17763;SDS011;22245;52.832;13.816;2024-03-07T10:30:58;23.93;;;13.37;;
17763;SDS011;22245;52.832;13.816;2024-03-07T10:34:20;19.07;;;11.63;;
17763;SDS011;22245;52.832;13.816;2024-03-07T10:37:44;23.97;;;12.47;;
17763;SDS011;22245;52.832;13.816;2024-03-07T10:41:08;22.43;;;12.43;;
17763;SDS011;22245;52.832;13.816;2024-03-07T10:44:31;20.53;;;12.93;;
17763;SDS011;22245;52.832;13.816;2024-03-07T10:47:57;23.47;;;13.00;;
17763;SDS011;22245;52.832;13.816;2024-03-07T10:51:24;21.97;;;12.03;;
17763;SDS011;22245;52.832;13.816;2024-03-07T10:54:52;22.40;;;12.50;;
17763;SDS011;22245;52.832;13.816;2024-03-07T10:58:33;23.43;;;12.87;;
17763;SDS011;22245;52.832;13.816;2024-03-07T11:01:59;22.03;;;12.07;;
17763;SDS011;22245;52.832;13.816;2024-03-07T11:05:38;23.23;;;12.57;;
17763;SDS011;22245;52.832;13.816;2024-03-07T11:09:01;23.87;;;13.37;;
17763;SDS011;22245;52.832;13.816;2024-03-07T11:12:30;22.87;;;12.70;;
17763;SDS011;22245;52.832;13.816;2024-03-07T11:15:55;17.87;;;11.80;;
17763;SDS011;22245;52.832;13.816;2024-03-07T11:19:19;20.63;;;12.00;;
17763;SDS011;22245;52.832;13.816;2024-03-07T11:22:58;22.93;;;12.93;;
17763;SDS011;22245;52.832;13.816;2024-03-07T11:26:20;19.63;;;11.60;;
17763;SDS011;22245;52.832;13.816;2024-03-07T11:29:42;22.97;;;13.80;;
17763;SDS011;22245;52.832;13.816;2024-03-07T11:33:08;21.53;;;12.80;;
17763;SDS011;22245;52.832;13.816;2024-03-07T11:36:41;27.00;;;12.70;;
17763;SDS011;22245;52.832;13.816;2024-03-07T11:40:07;20.67;;;12.00;;
17763;SDS011;22245;52.832;13.816;2024-03-07T11:43:38;22.73;;;12.63;;
17763;SDS011;22245;52.832;13.816;2024-03-07T11:47:00;21.83;;;12.90;;
17763;SDS011;22245;52.832;13.816;2024-03-07T11:50:28;23.53;;;12.70;;
17763;SDS011;22245;52.832;13.816;2024-03-07T11:53:55;22.57;;;12.70;;
17763;SDS011;22245;52.832;13.816;2024-03-07T11:57:18;21.80;;;12.33;;
17763;SDS011;22245;52.832;13.816;2024-03-07T12:00:46;21.17;;;12.03;;
17763;SDS011;22245;52.832;13.816;2024-03-07T12:04:09;23.53;;;12.17;;
17763;SDS011;22245;52.832;13.816;2024-03-07T12:07:35;22.67;;;12.80;;
17763;SDS011;22245;52.832;13.816;2024-03-07T12:10:59;21.00;;;12.53;;
17763;SDS011;22245;52.832;13.816;2024-03-07T12:14:24;20.37;;;11.80;;
17763;SDS011;22245;52.832;13.816;2024-03-07T12:17:47;22.20;;;13.10;;
17763;SDS011;22245;52.832;13.816;2024-03-07T12:21:10;23.73;;;13.10;;
17763;SDS011;22245;52.832;13.816;2024-03-07T12:24:32;21.93;;;12.20;;
17763;SDS011;22245;52.832;13.816;2024-03-07T12:28:04;24.00;;;12.50;;
17763;SDS011;22245;52.832;13.816;2024-03-07T12:31:33;25.00;;;13.43;;
17763;SDS011;22245;52.832;13.816;2024-03-07T12:34:56;28.17;;;14.33;;
17763;SDS011;22245;52.832;13.816;2024-03-07T12:38:18;27.10;;;12.87;;
17763;SDS011;22245;52.832;13.816;2024-03-07T12:41:40;23.73;;;13.07;;
17763;SDS011;22245;52.832;13.816;2024-03-07T12:45:02;21.80;;;12.80;;
17763;SDS011;22245;52.832;13.816;2024-03-07T12:48:28;28.07;;;14.20;;
17763;SDS011;22245;52.832;13.816;2024-03-07T12:51:49;22.90;;;12.53;;
17763;SDS011;22245;52.832;13.816;2024-03-07T12:55:11;23.20;;;13.37;;
17763;SDS011;22245;52.832;13.816;2024-03-07T12:58:33;22.33;;;12.57;;
17763;SDS011;22245;52.832;13.816;2024-03-07T13:01:55;23.77;;;12.80;;
17763;SDS011;22245;52.832;13.816;2024-03-07T13:05:19;32.30;;;13.97;;
17763;SDS011;22245;52.832;13.816;2024-03-07T13:08:42;22.33;;;12.63;;
17763;SDS011;22245;52.832;13.816;2024-03-07T13:12:04;22.03;;;12.43;;
17763;SDS011;22245;52.832;13.816;2024-03-07T13:15:30;22.97;;;12.67;;
17763;SDS011;22245;52.832;13.816;2024-03-07T13:18:52;22.30;;;12.63;;
17763;SDS011;22245;52.832;13.816;2024-03-07T13:22:15;25.13;;;13.23;;
17763;SDS011;22245;52.832;13.816;2024-03-07T13:25:37;27.23;;;13.30;;
17763;SDS011;22245;52.832;13.816;2024-03-07T13:29:00;23.63;;;13.60;;
17763;SDS011;22245;52.832;13.816;2024-03-07T13:32:24;22.80;;;13.53;;
17763;SDS011;22245;52.832;13.816;2024-03-07T13:35:49;24.33;;;12.93;;
17763;SDS011;22245;52.832;13.816;2024-03-07T13:39:13;25.33;;;13.10;;
17763;SDS011;22245;52.832;13.816;2024-03-07T13:42:36;27.50;;;13.50;;
17763;SDS011;22245;52.832;13.816;2024-03-07T13:45:58;25.73;;;13.73;;
17763;SDS011;22245;52.832;13.816;2024-03-07T13:49:19;22.43;;;13.27;;
17763;SDS011;22245;52.832;13.816;2024-03-07T13:52:44;24.50;;;12.90;;
17763;SDS011;22245;52.832;13.816;2024-03-07T14:00:14;23.10;;;13.23;;
17763;SDS011;22245;52.832;13.816;2024-03-07T14:03:56;21.60;;;12.57;;
17763;SDS011;22245;52.832;13.816;2024-03-07T14:07:41;21.47;;;12.50;;
17763;SDS011;22245;52.832;13.816;2024-03-07T14:11:38;22.43;;;12.00;;
17763;SDS011;22245;52.832;13.816;2024-03-07T14:15:29;23.47;;;12.17;;
17763;SDS011;22245;52.832;13.816;2024-03-07T14:19:31;19.47;;;11.63;;
17763;SDS011;22245;52.832;13.816;2024-03-07T14:23:19;25.50;;;12.83;;
17763;SDS011;22245;52.832;13.816;2024-03-07T14:27:04;22.83;;;12.73;;
17763;SDS011;22245;52.832;13.816;2024-03-07T14:30:40;27.03;;;14.30;;
17763;SDS011;22245;52.832;13.816;2024-03-07T14:34:12;22.50;;;13.30;;
17763;SDS011;22245;52.832;13.816;2024-03-07T14:37:44;21.30;;;11.73;;
17763;SDS011;22245;52.832;13.816;2024-03-07T14:41:10;22.13;;;12.73;;
17763;SDS011;22245;52.832;13.816;2024-03-07T14:44:37;19.83;;;12.73;;
17763;SDS011;22245;52.832;13.816;2024-03-07T14:48:00;21.80;;;12.87;;
17763;SDS011;22245;52.832;13.816;2024-03-07T14:51:23;20.37;;;12.00;;
17763;SDS011;22245;52.832;13.816;2024-03-07T14:54:46;22.07;;;12.00;;
17763;SDS011;22245;52.832;13.816;2024-03-07T14:58:08;21.03;;;11.73;;
17763;SDS011;22245;52.832;13.816;2024-03-07T15:01:32;21.43;;;12.27;;
17763;SDS011;22245;52.832;13.816;2024-03-07T15:04:54;23.33;;;12.83;;
17763;SDS011;22245;52.832;13.816;2024-03-07T15:08:17;21.57;;;13.37;;
17763;SDS011;22245;52.832;13.816;2024-03-07T15:11:39;20.57;;;12.03;;
17763;SDS011;22245;52.832;13.816;2024-03-07T15:15:01;19.97;;;11.73;;
17763;SDS011;22245;52.832;13.816;2024-03-07T15:18:36;21.50;;;12.90;;
17763;SDS011;22245;52.832;13.816;2024-03-07T15:21:58;18.37;;;11.70;;
17763;SDS011;22245;52.832;13.816;2024-03-07T15:25:20;20.70;;;12.03;;
17763;SDS011;22245;52.832;13.816;2024-03-07T15:28:42;20.97;;;11.27;;
17763;SDS011;22245;52.832;13.816;2024-03-07T15:32:05;21.57;;;12.07;;
17763;SDS011;22245;52.832;13.816;2024-03-07T15:35:31;19.77;;;11.93;;
17763;SDS011;22245;52.832;13.816;2024-03-07T15:38:53;18.87;;;11.00;;
17763;SDS011;22245;52.832;13.816;2024-03-07T15:42:17;21.77;;;11.27;;
17763;SDS011;22245;52.832;13.816;2024-03-07T15:45:39;20.67;;;11.37;;
17763;SDS011;22245;52.832;13.816;2024-03-07T15:49:01;27.40;;;11.40;;
17763;SDS011;22245;52.832;13.816;2024-03-07T15:52:24;20.60;;;11.30;;
17763;SDS011;22245;52.832;13.816;2024-03-07T15:55:46;20.00;;;11.43;;
17763;SDS011;22245;52.832;13.816;2024-03-07T15:59:08;20.63;;;11.17;;
17763;SDS011;22245;52.832;13.816;2024-03-07T16:02:30;20.57;;;12.17;;
17763;SDS011;22245;52.832;13.816;2024-03-07T16:05:53;18.80;;;12.10;;
17763;SDS011;22245;52.832;13.816;2024-03-07T16:09:18;20.43;;;11.80;;
17763;SDS011;22245;52.832;13.816;2024-03-07T16:12:43;20.13;;;11.57;;
17763;SDS011;22245;52.832;13.816;2024-03-07T16:16:05;19.40;;;11.60;;
17763;SDS011;22245;52.832;13.816;2024-03-07T16:19:27;17.83;;;11.10;;
17763;SDS011;22245;52.832;13.816;2024-03-07T16:22:49;20.10;;;11.67;;
17763;SDS011;22245;52.832;13.816;2024-03-07T16:26:11;20.33;;;11.53;;
17763;SDS011;22245;52.832;13.816;2024-03-07T16:29:36;19.23;;;11.47;;
17763;SDS011;22245;52.832;13.816;2024-03-07T16:32:58;23.20;;;11.73;;
17763;SDS011;22245;52.832;13.816;2024-03-07T16:36:21;23.67;;;12.50;;
17763;SDS011;22245;52.832;13.816;2024-03-07T16:39:43;20.17;;;11.87;;
17763;SDS011;22245;52.832;13.816;2024-03-07T16:43:06;22.00;;;11.27;;
17763;SDS011;22245;52.832;13.816;2024-03-07T16:46:34;20.47;;;11.23;;
17763;SDS011;22245;52.832;13.816;2024-03-07T16:49:56;26.20;;;12.90;;
17763;SDS011;22245;52.832;13.816;2024-03-07T16:53:18;21.30;;;12.63;;
17763;SDS011;22245;52.832;13.816;2024-03-07T16:56:40;19.77;;;12.17;;
17763;SDS011;22245;52.832;13.816;2024-03-07T17:00:05;23.07;;;12.20;;
17763;SDS011;22245;52.832;13.816;2024-03-07T17:03:30;25.93;;;12.43;;
17763;SDS011;22245;52.832;13.816;2024-03-07T17:06:51;26.20;;;12.40;;
17763;SDS011;22245;52.832;13.816;2024-03-07T17:10:13;21.47;;;12.90;;
17763;SDS011;22245;52.832;13.816;2024-03-07T17:13:35;25.33;;;13.67;;
17763;SDS011;22245;52.832;13.816;2024-03-07T17:16:58;28.80;;;13.43;;
17763;SDS011;22245;52.832;13.816;2024-03-07T17:20:24;33.87;;;17.13;;
17763;SDS011;22245;52.832;13.816;2024-03-07T17:23:47;31.10;;;18.23;;
17763;SDS011;22245;52.832;13.816;2024-03-07T17:27:09;31.83;;;17.47;;
17763;SDS011;22245;52.832;13.816;2024-03-07T17:30:33;37.27;;;17.97;;
17763;SDS011;22245;52.832;13.816;2024-03-07T17:33:57;33.87;;;17.33;;
17763;SDS011;22245;52.832;13.816;2024-03-07T17:37:19;25.07;;;14.27;;
17763;SDS011;22245;52.832;13.816;2024-03-07T17:40:40;24.83;;;14.30;;
17763;SDS011;22245;52.832;13.816;2024-03-07T17:44:03;27.40;;;15.70;;
17763;SDS011;22245;52.832;13.816;2024-03-07T17:47:30;29.90;;;15.23;;
17763;SDS011;22245;52.832;13.816;2024-03-07T17:50:53;30.23;;;16.77;;
17763;SDS011;22245;52.832;13.816;2024-03-07T17:54:16;32.87;;;15.80;;
17763;SDS011;22245;52.832;13.816;2024-03-07T17:57:39;27.63;;;13.40;;
17763;SDS011;22245;52.832;13.816;2024-03-07T18:01:02;27.40;;;14.57;;
17763;SDS011;22245;52.832;13.816;2024-03-07T18:04:26;23.63;;;13.63;;
17763;SDS011;22245;52.832;13.816;2024-03-07T18:07:49;24.57;;;13.90;;
17763;SDS011;22245;52.832;13.816;2024-03-07T18:11:15;26.30;;;13.17;;
17763;SDS011;22245;52.832;13.816;2024-03-07T18:14:37;23.63;;;13.27;;
17763;SDS011;22245;52.832;13.816;2024-03-07T18:17:58;27.10;;;12.27;;
17763;SDS011;22245;52.832;13.816;2024-03-07T18:21:23;23.90;;;12.03;;
17763;SDS011;22245;52.832;13.816;2024-03-07T18:24:47;24.03;;;12.27;;
17763;SDS011;22245;52.832;13.816;2024-03-07T18:28:09;22.43;;;11.73;;
17763;SDS011;22245;52.832;13.816;2024-03-07T18:31:33;23.37;;;12.17;;
17763;SDS011;22245;52.832;13.816;2024-03-07T18:34:55;22.30;;;12.07;;
17763;SDS011;22245;52.832;13.816;2024-03-07T18:38:16;24.50;;;12.80;;
17763;SDS011;22245;52.832;13.816;2024-03-07T18:41:39;20.83;;;11.97;;
17763;SDS011;22245;52.832;13.816;2024-03-07T18:45:03;21.97;;;11.87;;
17763;SDS011;22245;52.832;13.816;2024-03-07T18:48:29;22.40;;;12.07;;
17763;SDS011;22245;52.832;13.816;2024-03-07T18:51:51;20.20;;;11.57;;
17763;SDS011;22245;52.832;13.816;2024-03-07T18:55:14;29.43;;;12.63;;
17763;SDS011;22245;52.832;13.816;2024-03-07T18:58:39;26.77;;;12.23;;
17763;SDS011;22245;52.832;13.816;2024-03-07T19:02:05;21.07;;;11.60;;
17763;SDS011;22245;52.832;13.816;2024-03-07T19:05:33;22.63;;;11.13;;
17763;SDS011;22245;52.832;13.816;2024-03-07T19:08:57;22.03;;;11.77;;
17763;SDS011;22245;52.832;13.816;2024-03-07T19:12:21;23.23;;;11.40;;
17763;SDS011;22245;52.832;13.816;2024-03-07T19:15:44;24.27;;;12.07;;
17763;SDS011;22245;52.832;13.816;2024-03-07T19:19:08;21.97;;;11.93;;
17763;SDS011;22245;52.832;13.816;2024-03-07T19:22:29;21.03;;;11.70;;
17763;SDS011;22245;52.832;13.816;2024-03-07T19:25:53;27.83;;;13.87;;
17763;SDS011;22245;52.832;13.816;2024-03-07T19:29:15;22.53;;;12.23;;
17763;SDS011;22245;52.832;13.816;2024-03-07T19:32:39;24.73;;;12.30;;
17763;SDS011;22245;52.832;13.816;2024-03-07T19:36:02;26.20;;;13.60;;
17763;SDS011;22245;52.832;13.816;2024-03-07T19:39:25;28.37;;;14.80;;